Terminal Aerodrome Forecast
Issued by NWS Cleveland, OH

Home | Current Version | Previous Version | Text Only | Print | Product List | Glossary On
Versions: 1 2 3 4 5 6 7 8 9 10 11 12 13 14 15 16 17 18 19 20
000
FTUS41 KCLE 261348 AAA
TAFTOL
TAF AMD
KTOL 261348Z 2614/2712 08007KT P6SM OVC006
      TEMPO 2614/2616 4SM -SHRA BR OVC015
     FM261600 10005KT 4SM -RA BR OVC020
      TEMPO 2616/2620 VRB06KT 2SM -RA BR OVC012
     FM262000 20008KT P6SM BKN045 OVC120
     FM270200 20004KT 5SM BR SCT008 BKN120
     FM270600 23005KT 2SM BR OVC008=

USA.gov is the U.S. government's official web portal to all federal, state and local government web resources and services.